sensor_id;sensor_type;location;lat;lon;timestamp;pressure;altitude;pressure_sealevel;temperature;humidity
25420;BME280;13354;48.174;11.566;2023-04-02T00:01:24;94904.66;;;8.33;71.26
25420;BME280;13354;48.174;11.566;2023-04-02T00:06:38;94904.31;;;8.42;70.73
25420;BME280;13354;48.174;11.566;2023-04-02T00:11:37;94912.88;;;8.16;72.24
25420;BME280;13354;48.174;11.566;2023-04-02T00:14:04;94912.19;;;8.36;71.07
25420;BME280;13354;48.174;11.566;2023-04-02T00:16:30;94915.44;;;8.38;71.39
25420;BME280;13354;48.174;11.566;2023-04-02T00:18:57;94908.47;;;8.23;71.61
25420;BME280;13354;48.174;11.566;2023-04-02T00:21:25;94918.66;;;8.33;71.28
25420;BME280;13354;48.174;11.566;2023-04-02T00:23:52;94912.75;;;8.31;71.15
25420;BME280;13354;48.174;11.566;2023-04-02T00:26:34;94912.81;;;8.38;71.21
25420;BME280;13354;48.174;11.566;2023-04-02T00:29:01;94924.28;;;8.23;72.04
25420;BME280;13354;48.174;11.566;2023-04-02T00:31:27;94921.88;;;8.29;71.54
25420;BME280;13354;48.174;11.566;2023-04-02T00:33:53;94929.44;;;8.38;71.18
25420;BME280;13354;48.174;11.566;2023-04-02T00:36:18;94922.50;;;8.31;71.30
25420;BME280;13354;48.174;11.566;2023-04-02T00:38:45;94932.34;;;8.15;71.71
25420;BME280;13354;48.174;11.566;2023-04-02T00:41:15;94932.19;;;8.23;71.41
25420;BME280;13354;48.174;11.566;2023-04-02T00:43:41;94929.59;;;8.30;71.20
25420;BME280;13354;48.174;11.566;2023-04-02T00:46:14;94933.25;;;8.29;71.69
25420;BME280;13354;48.174;11.566;2023-04-02T00:48:43;94924.50;;;8.22;71.23
25420;BME280;13354;48.174;11.566;2023-04-02T00:51:12;94929.81;;;8.35;70.87
25420;BME280;13354;48.174;11.566;2023-04-02T00:53:38;94932.16;;;8.17;71.60
25420;BME280;13354;48.174;11.566;2023-04-02T00:56:04;94926.69;;;8.18;71.82
25420;BME280;13354;48.174;11.566;2023-04-02T00:58:36;94937.09;;;8.27;71.50
25420;BME280;13354;48.174;11.566;2023-04-02T01:01:02;94928.63;;;8.38;70.80
25420;BME280;13354;48.174;11.566;2023-04-02T01:03:32;94934.81;;;8.23;71.25
25420;BME280;13354;48.174;11.566;2023-04-02T01:13:56;94932.81;;;8.26;70.96
25420;BME280;13354;48.174;11.566;2023-04-02T01:16:33;94936.28;;;8.26;71.29
25420;BME280;13354;48.174;11.566;2023-04-02T01:21:40;94941.28;;;8.21;71.59
25420;BME280;13354;48.174;11.566;2023-04-02T01:24:09;94935.81;;;8.16;71.45
25420;BME280;13354;48.174;11.566;2023-04-02T01:26:43;94928.78;;;8.30;71.27
25420;BME280;13354;48.174;11.566;2023-04-02T01:29:17;94935.06;;;8.29;71.40
25420;BME280;13354;48.174;11.566;2023-04-02T01:31:44;94946.00;;;8.26;71.57
25420;BME280;13354;48.174;11.566;2023-04-02T01:34:11;94944.31;;;8.11;71.82
25420;BME280;13354;48.174;11.566;2023-04-02T01:41:39;94950.69;;;8.30;71.56
25420;BME280;13354;48.174;11.566;2023-04-02T01:44:08;94958.13;;;8.20;71.82
25420;BME280;13354;48.174;11.566;2023-04-02T01:46:37;94945.03;;;8.33;71.47
25420;BME280;13354;48.174;11.566;2023-04-02T01:49:14;94951.56;;;8.37;71.18
25420;BME280;13354;48.174;11.566;2023-04-02T01:51:44;94953.44;;;8.43;71.00
25420;BME280;13354;48.174;11.566;2023-04-02T01:54:10;94955.97;;;8.30;71.11
25420;BME280;13354;48.174;11.566;2023-04-02T01:56:36;94955.75;;;8.25;71.29
25420;BME280;13354;48.174;11.566;2023-04-02T01:59:02;94958.75;;;8.22;71.67
25420;BME280;13354;48.174;11.566;2023-04-02T02:01:38;94959.56;;;8.22;71.60
25420;BME280;13354;48.174;11.566;2023-04-02T02:04:08;94965.44;;;8.24;71.45
25420;BME280;13354;48.174;11.566;2023-04-02T02:06:35;94970.34;;;8.28;71.60
25420;BME280;13354;48.174;11.566;2023-04-02T02:09:02;94963.91;;;8.37;71.16
25420;BME280;13354;48.174;11.566;2023-04-02T02:11:29;94971.56;;;8.25;71.77
25420;BME280;13354;48.174;11.566;2023-04-02T02:14:05;94977.81;;;8.24;71.71
25420;BME280;13354;48.174;11.566;2023-04-02T02:16:36;94975.09;;;8.39;71.50
25420;BME280;13354;48.174;11.566;2023-04-02T02:19:05;94979.50;;;8.32;71.55
25420;BME280;13354;48.174;11.566;2023-04-02T02:21:39;94978.25;;;8.28;71.92
25420;BME280;13354;48.174;11.566;2023-04-02T02:24:08;94984.75;;;8.32;71.83
25420;BME280;13354;48.174;11.566;2023-04-02T02:26:40;94981.53;;;8.30;71.87
25420;BME280;13354;48.174;11.566;2023-04-02T02:29:06;94985.09;;;8.43;71.42
25420;BME280;13354;48.174;11.566;2023-04-02T02:31:35;94986.13;;;8.21;71.80
25420;BME280;13354;48.174;11.566;2023-04-02T02:34:02;94992.22;;;8.21;72.20
25420;BME280;13354;48.174;11.566;2023-04-02T02:36:36;94992.84;;;8.23;72.25
25420;BME280;13354;48.174;11.566;2023-04-02T02:41:40;94995.38;;;8.38;71.80
25420;BME280;13354;48.174;11.566;2023-04-02T02:46:32;94996.97;;;8.33;71.47
25420;BME280;13354;48.174;11.566;2023-04-02T02:48:58;95004.19;;;8.24;71.91
25420;BME280;13354;48.174;11.566;2023-04-02T02:51:28;95012.91;;;8.18;71.78
25420;BME280;13354;48.174;11.566;2023-04-02T02:53:56;95007.63;;;8.18;72.01
25420;BME280;13354;48.174;11.566;2023-04-02T02:56:24;95008.06;;;8.28;71.81
25420;BME280;13354;48.174;11.566;2023-04-02T02:58:51;95011.41;;;8.09;72.32
25420;BME280;13354;48.174;11.566;2023-04-02T03:01:17;95021.91;;;8.02;73.01
25420;BME280;13354;48.174;11.566;2023-04-02T03:03:42;95019.56;;;8.14;72.67
25420;BME280;13354;48.174;11.566;2023-04-02T03:06:09;95021.72;;;8.04;73.10
25420;BME280;13354;48.174;11.566;2023-04-02T03:08:46;95018.72;;;8.07;73.13
25420;BME280;13354;48.174;11.566;2023-04-02T03:11:15;95012.69;;;8.19;72.41
25420;BME280;13354;48.174;11.566;2023-04-02T03:13:44;95016.34;;;8.18;72.07
25420;BME280;13354;48.174;11.566;2023-04-02T03:22:02;95022.81;;;8.16;71.87
25420;BME280;13354;48.174;11.566;2023-04-02T03:24:37;95022.81;;;8.16;72.08
25420;BME280;13354;48.174;11.566;2023-04-02T03:27:09;95029.69;;;8.10;71.68
25420;BME280;13354;48.174;11.566;2023-04-02T03:29:39;95032.69;;;8.07;72.19
25420;BME280;13354;48.174;11.566;2023-04-02T03:34:45;95038.69;;;8.22;71.18
25420;BME280;13354;48.174;11.566;2023-04-02T03:37:16;95042.22;;;8.08;71.90
25420;BME280;13354;48.174;11.566;2023-04-02T03:39:54;95043.16;;;8.22;71.44
25420;BME280;13354;48.174;11.566;2023-04-02T03:42:22;95041.47;;;8.14;71.68
25420;BME280;13354;48.174;11.566;2023-04-02T03:50:00;95047.19;;;8.24;71.13
25420;BME280;13354;48.174;11.566;2023-04-02T03:52:28;95054.81;;;8.13;71.81
25420;BME280;13354;48.174;11.566;2023-04-02T03:54:54;95052.41;;;8.11;71.62
25420;BME280;13354;48.174;11.566;2023-04-02T03:57:24;95041.69;;;8.19;71.56
25420;BME280;13354;48.174;11.566;2023-04-02T03:59:53;95049.69;;;8.05;71.60
25420;BME280;13354;48.174;11.566;2023-04-02T04:02:37;95056.22;;;8.09;71.77
25420;BME280;13354;48.174;11.566;2023-04-02T04:05:04;95056.84;;;8.11;71.85
25420;BME280;13354;48.174;11.566;2023-04-02T04:07:34;95059.84;;;7.80;72.99
25420;BME280;13354;48.174;11.566;2023-04-02T04:10:00;95061.66;;;7.79;72.88
25420;BME280;13354;48.174;11.566;2023-04-02T04:12:29;95063.03;;;7.96;72.47
25420;BME280;13354;48.174;11.566;2023-04-02T04:15:03;95072.69;;;7.89;72.76
25420;BME280;13354;48.174;11.566;2023-04-02T04:17:33;95077.06;;;8.04;71.95
25420;BME280;13354;48.174;11.566;2023-04-02T04:20:13;95073.56;;;7.96;72.28
25420;BME280;13354;48.174;11.566;2023-04-02T04:22:39;95081.28;;;7.98;72.35
25420;BME280;13354;48.174;11.566;2023-04-02T04:25:06;95078.03;;;7.96;72.57
25420;BME280;13354;48.174;11.566;2023-04-02T04:30:26;95078.78;;;7.90;72.54
25420;BME280;13354;48.174;11.566;2023-04-02T04:32:55;95080.91;;;8.01;72.13
25420;BME280;13354;48.174;11.566;2023-04-02T04:37:47;95087.63;;;7.82;72.97
25420;BME280;13354;48.174;11.566;2023-04-02T04:40:18;95095.41;;;7.90;72.52
25420;BME280;13354;48.174;11.566;2023-04-02T04:42:44;95099.16;;;8.03;72.25
25420;BME280;13354;48.174;11.566;2023-04-02T04:47:59;95109.59;;;7.89;72.73
25420;BME280;13354;48.174;11.566;2023-04-02T04:53:14;95115.69;;;7.90;72.78
25420;BME280;13354;48.174;11.566;2023-04-02T04:55:43;95115.91;;;7.95;72.29
25420;BME280;13354;48.174;11.566;2023-04-02T05:00:55;95131.19;;;7.78;73.13
25420;BME280;13354;48.174;11.566;2023-04-02T05:03:29;95124.28;;;7.77;73.26
25420;BME280;13354;48.174;11.566;2023-04-02T05:05:58;95129.00;;;7.82;73.04
25420;BME280;13354;48.174;11.566;2023-04-02T05:08:25;95128.09;;;7.74;73.26
25420;BME280;13354;48.174;11.566;2023-04-02T05:10:59;95134.94;;;7.69;73.32
25420;BME280;13354;48.174;11.566;2023-04-02T05:16:06;95144.66;;;7.68;73.79
25420;BME280;13354;48.174;11.566;2023-04-02T05:18:46;95135.13;;;7.67;73.99
25420;BME280;13354;48.174;11.566;2023-04-02T05:26:29;95147.94;;;7.70;73.77
25420;BME280;13354;48.174;11.566;2023-04-02T05:28:59;95155.41;;;7.67;73.66
25420;BME280;13354;48.174;11.566;2023-04-02T05:33:51;95153.31;;;7.84;73.17
25420;BME280;13354;48.174;11.566;2023-04-02T05:36:19;95164.19;;;7.74;73.83
25420;BME280;13354;48.174;11.566;2023-04-02T05:38:45;95163.03;;;7.83;73.36
25420;BME280;13354;48.174;11.566;2023-04-02T05:41:20;95168.31;;;7.83;72.88
25420;BME280;13354;48.174;11.566;2023-04-02T05:43:48;95163.47;;;7.65;73.62
25420;BME280;13354;48.174;11.566;2023-04-02T05:46:15;95169.63;;;7.72;73.83
25420;BME280;13354;48.174;11.566;2023-04-02T05:48:40;95164.78;;;7.76;73.60
25420;BME280;13354;48.174;11.566;2023-04-02T05:51:17;95165.97;;;7.88;72.86
25420;BME280;13354;48.174;11.566;2023-04-02T05:53:46;95169.56;;;7.66;73.92
25420;BME280;13354;48.174;11.566;2023-04-02T05:56:14;95184.00;;;7.70;73.75
25420;BME280;13354;48.174;11.566;2023-04-02T05:58:43;95186.06;;;7.74;73.53
25420;BME280;13354;48.174;11.566;2023-04-02T06:03:48;95191.47;;;7.66;73.73
25420;BME280;13354;48.174;11.566;2023-04-02T06:06:58;95187.94;;;7.59;74.17
25420;BME280;13354;48.174;11.566;2023-04-02T06:11:49;95192.22;;;7.82;73.19
25420;BME280;13354;48.174;11.566;2023-04-02T06:14:15;95182.44;;;7.75;73.28
25420;BME280;13354;48.174;11.566;2023-04-02T06:16:42;95196.13;;;7.49;74.30
25420;BME280;13354;48.174;11.566;2023-04-02T06:19:12;95198.13;;;7.47;74.43
25420;BME280;13354;48.174;11.566;2023-04-02T06:21:44;95196.28;;;7.63;74.39
25420;BME280;13354;48.174;11.566;2023-04-02T06:24:09;95200.78;;;7.47;74.81
25420;BME280;13354;48.174;11.566;2023-04-02T06:26:41;95202.94;;;7.59;74.37
25420;BME280;13354;48.174;11.566;2023-04-02T06:31:56;95206.63;;;7.64;74.52
25420;BME280;13354;48.174;11.566;2023-04-02T06:34:22;95199.53;;;7.65;74.38
25420;BME280;13354;48.174;11.566;2023-04-02T06:36:49;95207.31;;;7.73;74.18
25420;BME280;13354;48.174;11.566;2023-04-02T06:39:19;95209.50;;;7.84;73.79
25420;BME280;13354;48.174;11.566;2023-04-02T06:41:46;95209.50;;;7.84;73.64
25420;BME280;13354;48.174;11.566;2023-04-02T06:44:19;95223.03;;;7.81;73.94
25420;BME280;13354;48.174;11.566;2023-04-02T06:46:52;95223.50;;;7.85;73.42
25420;BME280;13354;48.174;11.566;2023-04-02T06:49:22;95228.13;;;7.83;73.84
25420;BME280;13354;48.174;11.566;2023-04-02T06:51:50;95233.88;;;7.71;74.23
25420;BME280;13354;48.174;11.566;2023-04-02T06:54:17;95240.31;;;7.69;74.77
25420;BME280;13354;48.174;11.566;2023-04-02T06:56:50;95251.03;;;7.82;74.32
25420;BME280;13354;48.174;11.566;2023-04-02T06:59:16;95251.94;;;7.74;74.55
25420;BME280;13354;48.174;11.566;2023-04-02T07:01:55;95250.31;;;7.73;74.85
25420;BME280;13354;48.174;11.566;2023-04-02T07:04:21;95255.56;;;7.88;74.37
25420;BME280;13354;48.174;11.566;2023-04-02T07:06:47;95261.81;;;7.87;74.12
25420;BME280;13354;48.174;11.566;2023-04-02T07:09:12;95267.94;;;8.09;73.78
25420;BME280;13354;48.174;11.566;2023-04-02T07:11:37;95263.22;;;8.05;73.99
25420;BME280;13354;48.174;11.566;2023-04-02T07:14:03;95268.50;;;8.05;73.98
25420;BME280;13354;48.174;11.566;2023-04-02T07:16:29;95264.66;;;8.22;73.78
25420;BME280;13354;48.174;11.566;2023-04-02T07:18:55;95274.81;;;8.25;72.90
25420;BME280;13354;48.174;11.566;2023-04-02T07:21:22;95272.72;;;8.20;73.44
25420;BME280;13354;48.174;11.566;2023-04-02T07:23:48;95273.38;;;8.22;73.13
25420;BME280;13354;48.174;11.566;2023-04-02T07:26:14;95273.50;;;8.36;73.25
25420;BME280;13354;48.174;11.566;2023-04-02T07:28:40;95275.97;;;8.37;72.59
25420;BME280;13354;48.174;11.566;2023-04-02T07:33:43;95277.44;;;8.40;73.26
25420;BME280;13354;48.174;11.566;2023-04-02T07:36:12;95282.94;;;8.66;72.39
25420;BME280;13354;48.174;11.566;2023-04-02T07:38:37;95285.16;;;8.63;72.59
25420;BME280;13354;48.174;11.566;2023-04-02T07:41:05;95287.66;;;8.71;72.27
25420;BME280;13354;48.174;11.566;2023-04-02T07:43:31;95288.31;;;8.80;71.61
25420;BME280;13354;48.174;11.566;2023-04-02T07:45:56;95287.44;;;8.94;71.46
25420;BME280;13354;48.174;11.566;2023-04-02T07:48:21;95286.00;;;8.91;71.38
25420;BME280;13354;48.174;11.566;2023-04-02T07:50:47;95295.72;;;8.63;71.87
25420;BME280;13354;48.174;11.566;2023-04-02T07:55:51;95305.75;;;8.95;71.75
25420;BME280;13354;48.174;11.566;2023-04-02T07:58:16;95306.25;;;9.12;70.66
25420;BME280;13354;48.174;11.566;2023-04-02T08:00:41;95302.84;;;8.90;71.13
25420;BME280;13354;48.174;11.566;2023-04-02T08:03:07;95307.81;;;8.79;71.75
25420;BME280;13354;48.174;11.566;2023-04-02T08:05:32;95310.97;;;8.89;72.42
25420;BME280;13354;48.174;11.566;2023-04-02T08:07:57;95311.09;;;9.09;72.39
25420;BME280;13354;48.174;11.566;2023-04-02T08:10:22;95310.16;;;9.16;71.35
25420;BME280;13354;48.174;11.566;2023-04-02T08:12:48;95313.63;;;9.17;70.73
25420;BME280;13354;48.174;11.566;2023-04-02T08:15:14;95323.31;;;9.10;71.10
25420;BME280;13354;48.174;11.566;2023-04-02T08:17:40;95320.53;;;9.18;70.84
25420;BME280;13354;48.174;11.566;2023-04-02T08:20:05;95318.84;;;9.10;70.66
25420;BME280;13354;48.174;11.566;2023-04-02T08:22:32;95324.28;;;9.02;71.14
25420;BME280;13354;48.174;11.566;2023-04-02T08:24:57;95342.63;;;8.89;71.35
25420;BME280;13354;48.174;11.566;2023-04-02T08:27:23;95339.34;;;8.87;71.26
25420;BME280;13354;48.174;11.566;2023-04-02T08:29:48;95332.22;;;9.09;70.97
25420;BME280;13354;48.174;11.566;2023-04-02T08:32:14;95342.41;;;9.12;71.30
25420;BME280;13354;48.174;11.566;2023-04-02T08:34:40;95343.56;;;9.03;71.09
25420;BME280;13354;48.174;11.566;2023-04-02T08:37:05;95334.34;;;9.20;70.47
25420;BME280;13354;48.174;11.566;2023-04-02T08:39:31;95340.41;;;9.14;71.17
25420;BME280;13354;48.174;11.566;2023-04-02T08:42:03;95341.66;;;9.18;70.93
25420;BME280;13354;48.174;11.566;2023-04-02T08:44:52;95338.78;;;9.41;70.74
25420;BME280;13354;48.174;11.566;2023-04-02T08:47:18;95342.94;;;9.50;70.17
25420;BME280;13354;48.174;11.566;2023-04-02T08:49:50;95340.19;;;9.72;69.09
25420;BME280;13354;48.174;11.566;2023-04-02T08:52:25;95346.75;;;9.76;68.51
25420;BME280;13354;48.174;11.566;2023-04-02T08:54:50;95344.50;;;9.79;68.02
25420;BME280;13354;48.174;11.566;2023-04-02T08:57:20;95346.66;;;10.04;67.72
25420;BME280;13354;48.174;11.566;2023-04-02T08:59:49;95351.56;;;10.07;67.33
25420;BME280;13354;48.174;11.566;2023-04-02T09:02:38;95347.41;;;10.26;66.79
25420;BME280;13354;48.174;11.566;2023-04-02T09:05:04;95349.72;;;10.42;66.14
25420;BME280;13354;48.174;11.566;2023-04-02T09:07:31;95353.16;;;10.43;66.16
25420;BME280;13354;48.174;11.566;2023-04-02T09:09:57;95354.41;;;10.47;66.22
25420;BME280;13354;48.174;11.566;2023-04-02T09:12:25;95347.13;;;10.82;65.30
25420;BME280;13354;48.174;11.566;2023-04-02T09:17:23;95358.59;;;11.42;63.47
25420;BME280;13354;48.174;11.566;2023-04-02T09:19:56;95370.44;;;11.46;62.60
25420;BME280;13354;48.174;11.566;2023-04-02T09:22:25;95369.00;;;11.44;62.25
25420;BME280;13354;48.174;11.566;2023-04-02T09:24:52;95371.66;;;11.57;61.89
25420;BME280;13354;48.174;11.566;2023-04-02T09:27:18;95374.06;;;11.92;62.17
25420;BME280;13354;48.174;11.566;2023-04-02T09:29:44;95367.34;;;11.69;62.07
25420;BME280;13354;48.174;11.566;2023-04-02T09:32:22;95374.03;;;12.12;62.62
25420;BME280;13354;48.174;11.566;2023-04-02T09:35:03;95386.84;;;12.15;61.62
25420;BME280;13354;48.174;11.566;2023-04-02T09:37:30;95386.19;;;12.26;61.45
25420;BME280;13354;48.174;11.566;2023-04-02T09:40:07;95398.09;;;12.10;60.55
25420;BME280;13354;48.174;11.566;2023-04-02T09:42:34;95394.13;;;12.39;60.08
25420;BME280;13354;48.174;11.566;2023-04-02T09:45:11;95394.00;;;12.14;59.85
25420;BME280;13354;48.174;11.566;2023-04-02T09:47:37;95391.19;;;11.96;60.22
25420;BME280;13354;48.174;11.566;2023-04-02T09:50:13;95395.47;;;11.77;61.05
25420;BME280;13354;48.174;11.566;2023-04-02T09:52:38;95396.53;;;11.49;61.96
25420;BME280;13354;48.174;11.566;2023-04-02T09:57:36;95403.84;;;11.34;63.11
25420;BME280;13354;48.174;11.566;2023-04-02T10:00:35;95407.31;;;11.21;62.88
25420;BME280;13354;48.174;11.566;2023-04-02T10:05:26;95404.22;;;11.11;63.93
25420;BME280;13354;48.174;11.566;2023-04-02T10:07:52;95399.97;;;11.17;63.61
25420;BME280;13354;48.174;11.566;2023-04-02T10:10:19;95404.44;;;11.23;63.61
25420;BME280;13354;48.174;11.566;2023-04-02T10:12:48;95406.91;;;11.57;62.92
25420;BME280;13354;48.174;11.566;2023-04-02T10:15:18;95403.84;;;11.94;61.98
25420;BME280;13354;48.174;11.566;2023-04-02T10:17:45;95410.78;;;11.95;61.05
25420;BME280;13354;48.174;11.566;2023-04-02T10:20:19;95401.41;;;11.92;60.91
25420;BME280;13354;48.174;11.566;2023-04-02T10:22:46;95411.00;;;11.93;61.09
25420;BME280;13354;48.174;11.566;2023-04-02T10:25:13;95406.50;;;11.94;60.83
25420;BME280;13354;48.174;11.566;2023-04-02T10:30:14;95404.22;;;12.11;61.29
25420;BME280;13354;48.174;11.566;2023-04-02T10:35:34;95407.50;;;12.13;59.10
25420;BME280;13354;48.174;11.566;2023-04-02T10:38:08;95410.16;;;12.06;59.60
25420;BME280;13354;48.174;11.566;2023-04-02T10:40:44;95408.31;;;12.00;60.44
25420;BME280;13354;48.174;11.566;2023-04-02T10:51:19;95409.47;;;12.37;58.20
25420;BME280;13354;48.174;11.566;2023-04-02T10:53:37;95421.72;;;12.31;57.45
25420;BME280;13354;48.174;11.566;2023-04-02T10:56:08;95422.09;;;12.42;57.56
25420;BME280;13354;48.174;11.566;2023-04-02T10:58:36;95426.63;;;12.28;58.20
25420;BME280;13354;48.174;11.566;2023-04-02T11:01:03;95428.72;;;11.93;58.50
25420;BME280;13354;48.174;11.566;2023-04-02T11:03:43;95430.78;;;11.91;58.97
25420;BME280;13354;48.174;11.566;2023-04-02T11:06:14;95435.69;;;11.87;59.94
25420;BME280;13354;48.174;11.566;2023-04-02T11:08:41;95441.00;;;11.94;59.85
25420;BME280;13354;48.174;11.566;2023-04-02T11:14:04;95436.47;;;11.74;60.15
25420;BME280;13354;48.174;11.566;2023-04-02T11:16:34;95439.34;;;11.73;60.89
25420;BME280;13354;48.174;11.566;2023-04-02T11:19:07;95439.13;;;11.74;61.23
25420;BME280;13354;48.174;11.566;2023-04-02T11:21:38;95440.97;;;11.74;61.53
25420;BME280;13354;48.174;11.566;2023-04-02T11:24:05;95444.22;;;11.63;62.51
25420;BME280;13354;48.174;11.566;2023-04-02T11:26:40;95443.63;;;11.60;62.44
25420;BME280;13354;48.174;11.566;2023-04-02T11:29:08;95438.13;;;11.62;64.07
25420;BME280;13354;48.174;11.566;2023-04-02T11:31:36;95443.41;;;11.62;65.49
25420;BME280;13354;48.174;11.566;2023-04-02T11:34:02;95455.88;;;11.61;65.75
25420;BME280;13354;48.174;11.566;2023-04-02T11:37:10;95457.94;;;11.86;65.77
25420;BME280;13354;48.174;11.566;2023-04-02T11:42:04;95453.56;;;12.38;63.73
25420;BME280;13354;48.174;11.566;2023-04-02T11:44:29;95455.59;;;12.36;62.49
25420;BME280;13354;48.174;11.566;2023-04-02T11:47:13;95456.66;;;12.28;62.16
25420;BME280;13354;48.174;11.566;2023-04-02T11:49:55;95457.16;;;12.70;61.33
25420;BME280;13354;48.174;11.566;2023-04-02T11:52:31;95455.25;;;12.77;60.93
25420;BME280;13354;48.174;11.566;2023-04-02T11:58:01;95455.75;;;13.06;60.36
25420;BME280;13354;48.174;11.566;2023-04-02T12:00:46;95452.56;;;13.29;59.50
25420;BME280;13354;48.174;11.566;2023-04-02T12:03:30;95456.91;;;13.23;57.51
25420;BME280;13354;48.174;11.566;2023-04-02T12:06:07;95453.22;;;13.18;57.19
25420;BME280;13354;48.174;11.566;2023-04-02T12:11:18;95462.00;;;12.80;58.15
25420;BME280;13354;48.174;11.566;2023-04-02T12:13:54;95467.38;;;12.67;58.27
25420;BME280;13354;48.174;11.566;2023-04-02T12:16:22;95467.31;;;12.73;57.32
25420;BME280;13354;48.174;11.566;2023-04-02T12:18:49;95469.38;;;12.78;57.86
25420;BME280;13354;48.174;11.566;2023-04-02T12:21:18;95474.69;;;12.78;56.80
25420;BME280;13354;48.174;11.566;2023-04-02T12:23:44;95474.06;;;12.76;57.01
25420;BME280;13354;48.174;11.566;2023-04-02T12:29:41;95475.28;;;12.80;58.59
25420;BME280;13354;48.174;11.566;2023-04-02T12:31:44;95486.16;;;12.58;62.98
25420;BME280;13354;48.174;11.566;2023-04-02T12:34:14;95488.47;;;12.42;65.21
25420;BME280;13354;48.174;11.566;2023-04-02T12:36:49;95492.59;;;12.24;67.05
25420;BME280;13354;48.174;11.566;2023-04-02T12:39:15;95492.22;;;11.88;68.26
25420;BME280;13354;48.174;11.566;2023-04-02T12:41:41;95490.56;;;11.80;69.02
25420;BME280;13354;48.174;11.566;2023-04-02T12:44:13;95493.41;;;11.65;70.92
25420;BME280;13354;48.174;11.566;2023-04-02T12:46:42;95505.44;;;11.61;73.13
25420;BME280;13354;48.174;11.566;2023-04-02T12:51:36;95508.03;;;11.28;74.89
25420;BME280;13354;48.174;11.566;2023-04-02T12:54:02;95511.69;;;11.20;76.48
25420;BME280;13354;48.174;11.566;2023-04-02T12:56:27;95515.47;;;11.04;78.32
25420;BME280;13354;48.174;11.566;2023-04-02T13:01:19;95524.16;;;10.85;80.63
25420;BME280;13354;48.174;11.566;2023-04-02T13:06:28;95517.97;;;10.64;81.39
25420;BME280;13354;48.174;11.566;2023-04-02T13:08:54;95523.16;;;10.79;82.47
25420;BME280;13354;48.174;11.566;2023-04-02T13:11:20;95517.56;;;10.61;81.24
25420;BME280;13354;48.174;11.566;2023-04-02T13:13:47;95520.94;;;10.48;81.71
25420;BME280;13354;48.174;11.566;2023-04-02T13:18:41;95514.59;;;10.43;81.80
25420;BME280;13354;48.174;11.566;2023-04-02T13:23:41;95523.53;;;10.42;82.38
25420;BME280;13354;48.174;11.566;2023-04-02T13:28:35;95527.94;;;10.28;84.15
25420;BME280;13354;48.174;11.566;2023-04-02T13:31:01;95529.56;;;10.29;85.24
25420;BME280;13354;48.174;11.566;2023-04-02T13:33:26;95530.94;;;10.25;85.06
25420;BME280;13354;48.174;11.566;2023-04-02T13:35:51;95526.28;;;10.27;86.00
25420;BME280;13354;48.174;11.566;2023-04-02T13:38:16;95520.81;;;10.28;86.97
25420;BME280;13354;48.174;11.566;2023-04-02T13:40:41;95528.03;;;10.20;87.13
25420;BME280;13354;48.174;11.566;2023-04-02T13:43:09;95522.31;;;10.16;86.13
25420;BME280;13354;48.174;11.566;2023-04-02T13:45:39;95524.41;;;10.21;84.95
25420;BME280;13354;48.174;11.566;2023-04-02T13:48:05;95531.59;;;10.27;85.75
25420;BME280;13354;48.174;11.566;2023-04-02T13:50:32;95520.66;;;10.36;86.38
25420;BME280;13354;48.174;11.566;2023-04-02T13:52:57;95525.13;;;10.36;86.47
25420;BME280;13354;48.174;11.566;2023-04-02T13:55:28;95522.38;;;10.51;86.01
25420;BME280;13354;48.174;11.566;2023-04-02T13:57:54;95536.25;;;10.59;86.25
25420;BME280;13354;48.174;11.566;2023-04-02T14:00:19;95535.75;;;10.77;86.17
25420;BME280;13354;48.174;11.566;2023-04-02T14:03:19;95528.06;;;10.48;84.57
25420;BME280;13354;48.174;11.566;2023-04-02T14:08:06;95543.66;;;10.36;82.85
25420;BME280;13354;48.174;11.566;2023-04-02T14:23:20;95555.88;;;10.09;84.71
25420;BME280;13354;48.174;11.566;2023-04-02T14:28:20;95564.63;;;10.09;85.24
25420;BME280;13354;48.174;11.566;2023-04-02T14:35:52;95577.41;;;10.06;85.64
25420;BME280;13354;48.174;11.566;2023-04-02T14:38:35;95570.50;;;10.11;84.75
25420;BME280;13354;48.174;11.566;2023-04-02T14:41:17;95569.84;;;10.03;85.13
25420;BME280;13354;48.174;11.566;2023-04-02T14:43:53;95574.84;;;9.91;85.22
25420;BME280;13354;48.174;11.566;2023-04-02T14:46:23;95579.84;;;9.86;85.25
25420;BME280;13354;48.174;11.566;2023-04-02T14:48:56;95580.44;;;9.81;85.22
25420;BME280;13354;48.174;11.566;2023-04-02T14:56:15;95590.63;;;9.84;88.30
25420;BME280;13354;48.174;11.566;2023-04-02T14:58:42;95582.78;;;9.91;88.20
25420;BME280;13354;48.174;11.566;2023-04-02T15:01:12;95595.03;;;9.99;87.65
25420;BME280;13354;48.174;11.566;2023-04-02T15:03:44;95589.31;;;9.95;87.72
25420;BME280;13354;48.174;11.566;2023-04-02T15:06:20;95596.72;;;10.06;87.68
25420;BME280;13354;48.174;11.566;2023-04-02T15:08:51;95595.53;;;10.09;87.78
25420;BME280;13354;48.174;11.566;2023-04-02T15:11:19;95599.19;;;10.08;87.97
25420;BME280;13354;48.174;11.566;2023-04-02T15:16:22;95602.47;;;10.10;88.00
25420;BME280;13354;48.174;11.566;2023-04-02T15:18:51;95600.84;;;10.09;88.01
25420;BME280;13354;48.174;11.566;2023-04-02T15:24:53;95609.59;;;10.09;87.90
25420;BME280;13354;48.174;11.566;2023-04-02T15:26:54;95611.22;;;10.10;87.81
25420;BME280;13354;48.174;11.566;2023-04-02T15:29:46;95613.19;;;10.02;86.13
25420;BME280;13354;48.174;11.566;2023-04-02T15:32:21;95615.19;;;10.00;87.10
25420;BME280;13354;48.174;11.566;2023-04-02T15:34:51;95613.19;;;10.02;87.70
25420;BME280;13354;48.174;11.566;2023-04-02T15:37:27;95614.75;;;9.96;87.67
25420;BME280;13354;48.174;11.566;2023-04-02T15:42:21;95623.38;;;9.83;84.23
25420;BME280;13354;48.174;11.566;2023-04-02T15:44:54;95628.41;;;9.78;86.56
25420;BME280;13354;48.174;11.566;2023-04-02T15:50:15;95635.97;;;9.81;87.13
25420;BME280;13354;48.174;11.566;2023-04-02T15:55:32;95650.56;;;9.77;86.63
25420;BME280;13354;48.174;11.566;2023-04-02T16:00:32;95661.59;;;9.81;85.70